createdAt,value
2017-12-11T00:00:21.025Z,5.70
2017-12-11T00:02:49.176Z,5.70
2017-12-11T00:05:18.705Z,5.70
2017-12-11T00:07:47.805Z,5.70
2017-12-11T00:10:16.873Z,5.80
2017-12-11T00:12:44.935Z,5.80
2017-12-11T00:15:13.869Z,5.80
2017-12-11T00:17:42.632Z,5.80
2017-12-11T00:20:11.592Z,5.80
2017-12-11T00:22:48.208Z,5.80
2017-12-11T00:25:17.151Z,5.80
2017-12-11T00:27:45.994Z,5.80
2017-12-11T00:30:15.009Z,5.80
2017-12-11T00:32:43.950Z,5.80
2017-12-11T00:35:12.848Z,5.80
2017-12-11T00:37:41.946Z,5.90
2017-12-11T00:40:10.427Z,5.80
2017-12-11T00:42:38.906Z,5.80
2017-12-11T00:45:07.865Z,5.80
2017-12-11T00:47:37.344Z,5.80
2017-12-11T00:50:05.383Z,5.80
2017-12-11T00:52:33.399Z,5.80
2017-12-11T00:55:02.265Z,5.70
2017-12-11T00:57:31.145Z,5.70
2017-12-11T00:59:59.245Z,5.80
2017-12-11T01:02:27.328Z,5.80
2017-12-11T01:04:56.204Z,5.80
2017-12-11T01:07:24.324Z,5.80
2017-12-11T01:09:52.437Z,5.80
2017-12-11T01:12:20.469Z,5.80
2017-12-11T01:14:49.474Z,5.80
2017-12-11T01:17:17.996Z,5.80
2017-12-11T01:19:46.164Z,5.80
2017-12-11T01:22:14.966Z,5.80
2017-12-11T01:24:43.773Z,5.80
2017-12-11T01:27:13.453Z,5.80
2017-12-11T01:29:41.888Z,5.80
2017-12-11T01:32:10.192Z,5.80
2017-12-11T01:34:39.138Z,5.80
2017-12-11T01:37:08.681Z,5.80
2017-12-11T01:39:36.735Z,5.80
2017-12-11T01:42:05.499Z,5.80
2017-12-11T01:44:34.360Z,5.80
2017-12-11T01:47:03.278Z,5.70
2017-12-11T01:49:32.112Z,5.80
2017-12-11T01:52:01.018Z,5.80
2017-12-11T01:54:29.085Z,5.80
2017-12-11T01:56:57.132Z,5.80
2017-12-11T01:59:25.301Z,5.80
2017-12-11T02:01:54.081Z,5.70
2017-12-11T02:04:22.034Z,5.70
2017-12-11T02:06:50.914Z,5.80
2017-12-11T02:09:19.741Z,5.70
2017-12-11T02:11:47.812Z,5.70
2017-12-11T02:14:16.932Z,5.70
2017-12-11T02:16:45.218Z,5.70
2017-12-11T02:19:13.583Z,5.70
2017-12-11T02:21:42.272Z,5.70
2017-12-11T02:24:11.293Z,5.70
2017-12-11T02:26:39.454Z,5.70
2017-12-11T02:29:08.537Z,5.60
2017-12-11T02:31:37.245Z,5.60
2017-12-11T02:34:05.374Z,5.60
2017-12-11T02:36:34.214Z,5.60
2017-12-11T02:39:02.322Z,5.60
2017-12-11T02:41:30.501Z,5.60
2017-12-11T02:43:59.237Z,5.60
2017-12-11T02:46:28.263Z,5.60
2017-12-11T02:48:57.148Z,5.60
2017-12-11T02:51:26.018Z,5.60
2017-12-11T02:53:54.078Z,5.60
2017-12-11T02:56:22.102Z,5.60
2017-12-11T02:58:51.816Z,5.60
2017-12-11T03:01:20.775Z,5.60
2017-12-11T03:03:49.458Z,5.60
2017-12-11T03:06:17.507Z,5.60
2017-12-11T03:08:46.410Z,5.60
2017-12-11T03:11:14.547Z,5.60
2017-12-11T03:13:42.588Z,5.50
2017-12-11T03:16:11.556Z,5.50
2017-12-11T03:18:41.007Z,5.50
2017-12-11T03:21:10.878Z,5.50
2017-12-11T03:23:38.996Z,5.50
2017-12-11T03:26:07.889Z,5.60
2017-12-11T03:28:35.911Z,5.60
2017-12-11T03:31:03.975Z,5.60
2017-12-11T03:33:32.121Z,5.60
2017-12-11T03:36:00.115Z,5.60
2017-12-11T03:38:29.417Z,5.60
2017-12-11T03:40:57.685Z,5.60
2017-12-11T03:43:25.752Z,5.60
2017-12-11T03:45:53.891Z,5.60
2017-12-11T03:48:22.763Z,5.60
2017-12-11T03:50:50.788Z,5.60
2017-12-11T03:53:18.859Z,5.60
2017-12-11T03:55:46.863Z,5.70
2017-12-11T03:58:15.735Z,5.60
2017-12-11T04:00:43.917Z,5.70
2017-12-11T04:03:13.366Z,5.60
2017-12-11T04:05:41.441Z,5.60
2017-12-11T04:08:09.625Z,5.60
2017-12-11T04:10:38.391Z,5.60
2017-12-11T04:13:07.526Z,5.60
2017-12-11T04:15:37.114Z,5.60
2017-12-11T04:18:05.232Z,5.60
2017-12-11T04:20:33.228Z,5.50
2017-12-11T04:23:01.218Z,5.50
2017-12-11T04:25:29.381Z,5.50
2017-12-11T04:27:57.567Z,5.50
2017-12-11T04:30:25.766Z,5.50
2017-12-11T04:32:53.878Z,5.50
2017-12-11T04:35:23.429Z,5.60
2017-12-11T04:37:51.720Z,5.60
2017-12-11T04:40:19.956Z,5.60
2017-12-11T04:42:48.604Z,5.60
2017-12-11T04:45:16.816Z,5.60
2017-12-11T04:47:45.893Z,5.60
2017-12-11T04:50:15.476Z,5.60
2017-12-11T04:52:44.432Z,5.60
2017-12-11T04:55:12.594Z,5.60
2017-12-11T04:57:41.057Z,5.60
2017-12-11T05:00:11.456Z,5.60
2017-12-11T05:02:39.488Z,5.60
2017-12-11T05:05:07.507Z,5.60
2017-12-11T05:07:36.568Z,5.60
2017-12-11T05:10:06.045Z,5.60
2017-12-11T05:12:34.209Z,5.60
2017-12-11T05:15:03.090Z,5.70
2017-12-11T05:17:32.083Z,5.70
2017-12-11T05:20:01.125Z,5.70
2017-12-11T05:22:29.225Z,5.70
2017-12-11T05:24:57.429Z,5.70
2017-12-11T05:27:27.624Z,5.70
2017-12-11T05:29:55.884Z,5.70
2017-12-11T05:32:25.566Z,5.70
2017-12-11T05:34:53.701Z,5.70
2017-12-11T05:37:24.272Z,5.70
2017-12-11T05:39:52.438Z,5.70
2017-12-11T05:42:20.446Z,5.70
2017-12-11T05:44:48.562Z,5.70
2017-12-11T05:47:16.560Z,5.80
2017-12-11T05:49:45.357Z,5.80
2017-12-11T05:52:13.455Z,5.80
2017-12-11T05:54:41.556Z,5.80
2017-12-11T05:57:09.670Z,5.80
2017-12-11T05:59:38.204Z,5.80
2017-12-11T06:02:07.892Z,5.80
2017-12-11T06:04:36.033Z,5.80
2017-12-11T06:07:04.065Z,5.90
2017-12-11T06:09:32.051Z,5.90
2017-12-11T06:12:00.150Z,5.90
2017-12-11T06:14:29.045Z,5.90
2017-12-11T06:16:57.953Z,5.90
2017-12-11T06:19:25.960Z,5.90
2017-12-11T06:21:54.241Z,5.90
2017-12-11T06:24:22.314Z,5.90
2017-12-11T06:26:50.393Z,5.90
2017-12-11T06:29:18.560Z,5.90
2017-12-11T06:31:47.209Z,5.90
2017-12-11T06:34:15.300Z,5.90
2017-12-11T06:36:44.808Z,6.00
2017-12-11T06:39:13.665Z,6.00
2017-12-11T06:41:41.677Z,6.00
2017-12-11T06:44:09.773Z,6.00
2017-12-11T06:46:37.828Z,6.00
2017-12-11T06:49:06.636Z,5.90
2017-12-11T06:51:34.621Z,5.80
2017-12-11T06:54:02.727Z,5.80
2017-12-11T06:56:31.500Z,5.80
2017-12-11T06:58:59.510Z,5.80
2017-12-11T07:01:27.532Z,5.90
2017-12-11T07:03:55.544Z,5.90
2017-12-11T07:06:24.490Z,5.90
2017-12-11T07:08:54.213Z,5.90
2017-12-11T07:11:22.921Z,5.90
2017-12-11T07:13:52.618Z,5.90
2017-12-11T07:16:20.750Z,5.90
2017-12-11T07:18:50.585Z,5.80
2017-12-11T07:21:20.184Z,5.70
2017-12-11T07:23:48.204Z,5.70
2017-12-11T07:26:17.520Z,5.50
2017-12-11T07:28:46.524Z,5.50
2017-12-11T07:31:14.822Z,5.50
2017-12-11T07:33:43.953Z,5.40
2017-12-11T07:36:12.996Z,5.40
2017-12-11T07:38:41.814Z,5.40
2017-12-11T07:41:09.944Z,5.40
2017-12-11T07:43:38.836Z,5.40
2017-12-11T07:46:07.117Z,5.40
2017-12-11T07:48:36.886Z,5.40
2017-12-11T07:51:04.893Z,5.40
2017-12-11T07:53:34.218Z,5.40
2017-12-11T07:56:03.619Z,5.40
2017-12-11T07:58:31.784Z,5.40
2017-12-11T08:00:59.884Z,5.40
2017-12-11T08:03:28.812Z,5.30
2017-12-11T08:05:58.945Z,5.30
2017-12-11T08:08:27.882Z,5.30
2017-12-11T08:10:56.195Z,5.30
2017-12-11T08:13:24.269Z,5.30
2017-12-11T08:15:52.305Z,5.30
2017-12-11T08:18:20.469Z,5.30
2017-12-11T08:20:49.158Z,5.30
2017-12-11T08:23:17.533Z,5.30
2017-12-11T08:25:46.589Z,5.30
2017-12-11T08:28:14.768Z,5.30
2017-12-11T08:30:43.700Z,5.30
2017-12-11T08:33:11.706Z,5.30
2017-12-11T08:35:39.701Z,5.30
2017-12-11T08:38:09.281Z,5.40
2017-12-11T08:40:37.247Z,5.40
2017-12-11T08:43:05.354Z,5.40
2017-12-11T08:45:35.177Z,5.40
2017-12-11T08:48:03.194Z,5.40
2017-12-11T08:50:32.402Z,5.40
2017-12-11T08:53:01.513Z,5.40
2017-12-11T08:55:31.104Z,5.50
2017-12-11T08:57:59.577Z,5.50
2017-12-11T09:00:27.728Z,5.50
2017-12-11T09:02:55.827Z,5.50
2017-12-11T09:05:23.975Z,5.50
2017-12-11T09:07:52.332Z,5.50
2017-12-11T09:10:20.352Z,5.50
2017-12-11T09:12:49.281Z,5.40
2017-12-11T09:15:17.729Z,5.40
2017-12-11T09:17:46.357Z,5.40
2017-12-11T09:20:14.357Z,5.40
2017-12-11T09:22:42.480Z,5.40
2017-12-11T09:25:11.425Z,5.40
2017-12-11T09:27:39.444Z,5.40
2017-12-11T09:30:08.546Z,5.50
2017-12-11T09:32:37.298Z,5.50
2017-12-11T09:35:06.092Z,5.50
2017-12-11T09:37:34.074Z,5.60
2017-12-11T09:40:03.054Z,5.60
2017-12-11T09:42:31.926Z,5.50
2017-12-11T09:45:00.127Z,5.60
2017-12-11T09:47:28.146Z,5.60
2017-12-11T09:49:56.693Z,5.60
2017-12-11T09:52:26.336Z,5.70
2017-12-11T09:54:54.473Z,5.60
2017-12-11T09:57:24.004Z,5.60
2017-12-11T09:59:52.490Z,5.60
2017-12-11T10:02:20.602Z,5.70
2017-12-11T10:04:49.546Z,5.70
2017-12-11T10:07:17.598Z,5.60
2017-12-11T10:09:46.678Z,5.70
2017-12-11T10:12:15.460Z,5.60
2017-12-11T10:14:43.582Z,5.70
2017-12-11T10:17:11.620Z,5.70
2017-12-11T10:19:40.533Z,5.70
2017-12-11T10:22:08.758Z,5.70
2017-12-11T10:24:36.797Z,5.70
2017-12-11T10:27:05.063Z,5.80
2017-12-11T10:29:33.527Z,5.80
2017-12-11T10:32:02.749Z,5.90
2017-12-11T10:34:31.024Z,5.80
2017-12-11T10:36:59.813Z,5.90
2017-12-11T10:39:28.127Z,6.00
2017-12-11T10:41:56.129Z,6.00
2017-12-11T10:44:24.886Z,6.00
2017-12-11T10:46:53.837Z,6.00
2017-12-11T10:49:22.294Z,6.00
2017-12-11T10:51:51.649Z,6.10
2017-12-11T10:54:20.417Z,6.10
2017-12-11T10:56:48.692Z,6.00
2017-12-11T10:59:17.429Z,6.00
2017-12-11T11:01:46.614Z,6.00
2017-12-11T11:04:14.625Z,6.00
2017-12-11T11:06:42.928Z,6.10
2017-12-11T11:09:11.717Z,6.20
2017-12-11T11:11:40.590Z,6.20
2017-12-11T11:14:08.685Z,6.30
2017-12-11T11:16:36.728Z,6.30
2017-12-11T11:19:04.727Z,6.30
2017-12-11T11:21:32.737Z,6.30
2017-12-11T11:24:00.751Z,6.30
2017-12-11T11:26:28.745Z,6.40
2017-12-11T11:28:57.777Z,6.40
2017-12-11T11:31:27.165Z,6.50
2017-12-11T11:33:55.363Z,6.40
2017-12-11T11:36:24.937Z,6.60
2017-12-11T11:38:52.960Z,6.50
2017-12-11T11:41:21.239Z,6.60
2017-12-11T11:43:49.947Z,6.60
2017-12-11T11:46:18.723Z,6.60
2017-12-11T11:48:46.773Z,6.60
2017-12-11T11:51:15.586Z,6.70
2017-12-11T11:53:43.665Z,6.60
2017-12-11T11:56:11.723Z,6.70
2017-12-11T11:58:39.855Z,6.70
2017-12-11T12:01:07.968Z,6.80
2017-12-11T12:03:35.985Z,6.80
2017-12-11T12:06:04.028Z,6.80
2017-12-11T12:08:32.053Z,6.90
2017-12-11T12:11:00.845Z,6.90
2017-12-11T12:13:29.679Z,6.90
2017-12-11T12:15:57.691Z,6.80
2017-12-11T12:18:26.983Z,6.90
2017-12-11T12:20:55.946Z,6.90
2017-12-11T12:23:24.225Z,6.80
2017-12-11T12:25:52.300Z,6.90
2017-12-11T12:28:21.338Z,6.90
2017-12-11T12:30:50.106Z,6.90
2017-12-11T12:33:18.955Z,6.80
2017-12-11T12:35:47.788Z,6.80
2017-12-11T12:38:16.801Z,6.90
2017-12-11T12:40:45.646Z,6.90
2017-12-11T12:43:13.685Z,6.90
2017-12-11T12:45:42.565Z,6.90
2017-12-11T12:48:10.586Z,6.90
2017-12-11T12:50:38.637Z,6.90
2017-12-11T12:53:07.317Z,6.90
2017-12-11T12:55:35.364Z,6.90
2017-12-11T12:58:03.427Z,6.90
2017-12-11T13:00:31.545Z,6.80
2017-12-11T13:03:00.173Z,6.80
2017-12-11T13:05:28.937Z,6.80
2017-12-11T13:07:56.952Z,6.80
2017-12-11T13:10:25.061Z,6.80
2017-12-11T13:12:53.125Z,6.80
2017-12-11T13:15:21.209Z,6.90
2017-12-11T13:17:49.315Z,6.90
2017-12-11T13:20:18.119Z,6.90
2017-12-11T13:22:47.727Z,6.90
2017-12-11T13:25:16.620Z,6.90
2017-12-11T13:27:45.520Z,6.80
2017-12-11T13:30:13.663Z,6.80
2017-12-11T13:32:41.631Z,6.80
2017-12-11T13:35:09.914Z,6.80
2017-12-11T13:37:37.911Z,6.80
2017-12-11T13:40:06.789Z,6.80
2017-12-11T13:42:35.342Z,6.80
2017-12-11T13:45:03.930Z,6.80
2017-12-11T13:47:31.938Z,6.80
2017-12-11T13:50:01.835Z,6.80
2017-12-11T13:52:30.630Z,6.80
2017-12-11T13:54:59.474Z,6.80
2017-12-11T13:57:27.627Z,6.80
2017-12-11T13:59:56.334Z,6.80
2017-12-11T14:02:24.876Z,6.80
2017-12-11T14:04:52.882Z,6.80
2017-12-11T14:07:21.628Z,6.80
2017-12-11T14:09:50.425Z,6.80
2017-12-11T14:12:18.501Z,6.80
2017-12-11T14:14:46.505Z,6.80
2017-12-11T14:17:14.558Z,6.90
2017-12-11T14:19:42.614Z,6.90
2017-12-11T14:22:10.638Z,6.90
2017-12-11T14:24:38.653Z,6.90
2017-12-11T14:27:06.697Z,6.90
2017-12-11T14:29:35.687Z,6.90
2017-12-11T14:32:04.582Z,6.90
2017-12-11T14:34:33.374Z,6.90
2017-12-11T14:37:02.127Z,7.00
2017-12-11T14:39:30.502Z,6.90
2017-12-11T14:41:58.518Z,7.00
2017-12-11T14:44:27.297Z,7.00
2017-12-11T14:46:56.065Z,7.00
2017-12-11T14:49:24.165Z,7.00
2017-12-11T14:51:53.028Z,7.10
2017-12-11T14:54:21.033Z,7.00
2017-12-11T14:56:49.826Z,7.00
2017-12-11T14:59:20.056Z,7.00
2017-12-11T15:01:48.091Z,6.90
2017-12-11T15:04:16.138Z,6.90
2017-12-11T15:06:44.201Z,6.90
2017-12-11T15:09:12.236Z,6.80
2017-12-11T15:11:40.603Z,6.80
2017-12-11T15:14:10.144Z,6.80
2017-12-11T15:16:39.085Z,6.80
2017-12-11T15:19:08.854Z,6.80
2017-12-11T15:21:36.937Z,6.80
2017-12-11T15:24:04.965Z,6.80
2017-12-11T15:26:33.141Z,6.80
2017-12-11T15:29:01.208Z,6.80
2017-12-11T15:31:29.258Z,6.80
2017-12-11T15:33:58.169Z,6.80
2017-12-11T15:36:26.242Z,6.70
2017-12-11T15:38:54.309Z,6.80
2017-12-11T15:41:23.198Z,6.80
2017-12-11T15:43:52.042Z,6.90
2017-12-11T15:46:20.339Z,6.90
2017-12-11T15:48:48.717Z,6.90
2017-12-11T15:51:17.041Z,6.90
2017-12-11T15:53:45.135Z,7.00
2017-12-11T15:56:13.144Z,7.00
2017-12-11T15:58:41.423Z,7.00
2017-12-11T16:01:11.271Z,7.00
2017-12-11T16:03:39.312Z,7.00
2017-12-11T16:06:08.082Z,7.10
2017-12-11T16:08:36.257Z,7.10
2017-12-11T16:11:04.917Z,7.10
2017-12-11T16:13:32.973Z,7.10
2017-12-11T16:16:01.350Z,7.10
2017-12-11T16:18:30.134Z,7.20
2017-12-11T16:20:58.937Z,7.20
2017-12-11T16:23:26.995Z,7.10
2017-12-11T16:25:55.006Z,7.10
2017-12-11T16:28:23.072Z,7.10
2017-12-11T16:30:51.159Z,7.00
2017-12-11T16:33:20.100Z,7.00
2017-12-11T16:35:48.232Z,7.00
2017-12-11T16:38:16.727Z,6.90
2017-12-11T16:40:45.562Z,6.90
2017-12-11T16:43:14.366Z,6.90
2017-12-11T16:45:42.490Z,7.00
2017-12-11T16:48:11.297Z,7.00
2017-12-11T16:50:39.426Z,7.00
2017-12-11T16:53:08.290Z,7.00
2017-12-11T16:55:36.332Z,7.00
2017-12-11T16:58:04.391Z,7.00
2017-12-11T17:00:32.962Z,7.00
2017-12-11T17:03:02.305Z,7.10
2017-12-11T17:05:30.361Z,7.10
2017-12-11T17:07:58.470Z,7.10
2017-12-11T17:10:26.521Z,7.10
2017-12-11T17:12:54.561Z,7.20
2017-12-11T17:15:22.581Z,7.20
2017-12-11T17:17:50.584Z,7.20
2017-12-11T17:20:19.365Z,7.20
2017-12-11T17:22:47.440Z,7.20
2017-12-11T17:25:16.216Z,7.20
2017-12-11T17:27:44.229Z,7.20
2017-12-11T17:30:12.234Z,7.20
2017-12-11T17:32:40.296Z,7.20
2017-12-11T17:35:08.302Z,7.20
2017-12-11T17:37:36.430Z,7.30
2017-12-11T17:40:04.572Z,7.30
2017-12-11T17:42:33.378Z,7.30
2017-12-11T17:45:02.278Z,7.20
2017-12-11T17:47:31.352Z,7.30
2017-12-11T17:49:59.369Z,7.30
2017-12-11T17:52:27.395Z,7.20
2017-12-11T17:54:55.427Z,7.20
2017-12-11T17:57:23.440Z,7.20
2017-12-11T17:59:51.442Z,7.20
2017-12-11T18:02:19.465Z,7.20
2017-12-11T18:04:48.249Z,7.30
2017-12-11T18:07:17.080Z,7.30
2017-12-11T18:09:45.143Z,7.30
2017-12-11T18:12:14.133Z,7.30
2017-12-11T18:14:43.109Z,7.30
2017-12-11T18:17:11.306Z,7.30
2017-12-11T18:19:39.308Z,7.40
2017-12-11T18:22:07.311Z,7.40
2017-12-11T18:24:36.085Z,7.40
2017-12-11T18:27:04.129Z,7.40
2017-12-11T18:29:32.186Z,7.40
2017-12-11T18:32:00.474Z,7.40
2017-12-11T18:34:28.510Z,7.40
2017-12-11T18:36:56.587Z,7.50
2017-12-11T18:39:24.606Z,7.50
2017-12-11T18:41:53.652Z,7.60
2017-12-11T18:44:22.129Z,7.80
2017-12-11T18:46:50.728Z,7.80
2017-12-11T18:49:19.478Z,8.00
2017-12-11T18:51:48.331Z,8.30
2017-12-11T18:54:16.343Z,8.30
2017-12-11T18:56:45.954Z,8.90
2017-12-11T18:59:13.978Z,8.90
2017-12-11T19:01:42.068Z,9.10
2017-12-11T19:04:10.224Z,9.40
2017-12-11T19:06:39.022Z,9.50
2017-12-11T19:09:07.477Z,9.60
2017-12-11T19:11:36.119Z,9.60
2017-12-11T19:14:04.941Z,9.80
2017-12-11T19:16:32.934Z,9.80
2017-12-11T19:19:01.868Z,10.00
2017-12-11T19:21:31.657Z,10.70
2017-12-11T19:24:00.270Z,10.60
2017-12-11T19:26:29.464Z,10.90
2017-12-11T19:28:58.251Z,10.80
2017-12-11T19:31:27.188Z,10.70
2017-12-11T19:33:55.889Z,10.70
2017-12-11T19:36:24.021Z,10.60
2017-12-11T19:38:52.967Z,10.50
2017-12-11T19:41:21.097Z,10.50
2017-12-11T19:43:49.234Z,10.50
2017-12-11T19:46:17.918Z,10.70
2017-12-11T19:48:47.028Z,11.00
2017-12-11T19:51:15.907Z,11.30
2017-12-11T19:53:45.161Z,11.80
2017-12-11T19:56:13.183Z,11.90
2017-12-11T19:58:41.950Z,12.30
2017-12-11T20:01:10.015Z,12.30
2017-12-11T20:03:38.025Z,12.50
2017-12-11T20:06:06.027Z,12.70
2017-12-11T20:08:34.077Z,12.80
2017-12-11T20:11:02.097Z,13.00
2017-12-11T20:13:30.140Z,13.10
2017-12-11T20:15:58.176Z,13.20
2017-12-11T20:18:26.973Z,13.50
2017-12-11T20:20:55.080Z,13.50
2017-12-11T20:23:23.114Z,13.70
2017-12-11T20:25:51.175Z,13.90
2017-12-11T20:28:19.977Z,14.10
2017-12-11T20:30:48.048Z,14.10
2017-12-11T20:33:16.053Z,14.30
2017-12-11T20:35:44.063Z,14.40
2017-12-11T20:38:12.185Z,14.50
2017-12-11T20:40:40.177Z,14.60
2017-12-11T20:43:08.174Z,14.70
2017-12-11T20:45:36.191Z,14.70
2017-12-11T20:48:04.184Z,14.90
2017-12-11T20:50:32.226Z,14.90
2017-12-11T20:53:00.306Z,15.00
2017-12-11T20:55:28.310Z,15.10
2017-12-11T20:57:56.310Z,15.30
2017-12-11T21:00:25.659Z,15.40
2017-12-11T21:02:53.756Z,15.40
2017-12-11T21:05:22.558Z,15.50
2017-12-11T21:07:51.400Z,15.50
2017-12-11T21:10:19.472Z,15.60
2017-12-11T21:12:48.733Z,15.60
2017-12-11T21:15:18.403Z,15.60
2017-12-11T21:17:46.725Z,15.60
2017-12-11T21:20:15.618Z,15.70
2017-12-11T21:22:45.327Z,15.70
2017-12-11T21:25:14.187Z,15.80
2017-12-11T21:27:43.041Z,15.80
2017-12-11T21:30:11.406Z,15.80
2017-12-11T21:32:39.418Z,15.90
2017-12-11T21:35:07.450Z,16.00
2017-12-11T21:37:36.153Z,16.00
2017-12-11T21:40:04.220Z,16.00
2017-12-11T21:42:32.240Z,16.00
2017-12-11T21:45:00.289Z,16.00
2017-12-11T21:47:28.299Z,16.00
2017-12-11T21:49:58.005Z,16.00
2017-12-11T21:52:28.817Z,16.00
2017-12-11T21:54:58.201Z,16.00
2017-12-11T21:57:26.240Z,16.00
2017-12-11T21:59:54.523Z,16.10
2017-12-11T22:02:22.508Z,16.10
2017-12-11T22:04:51.484Z,16.20
2017-12-11T22:07:19.901Z,16.20
2017-12-11T22:09:48.217Z,16.30
2017-12-11T22:12:17.344Z,16.30
2017-12-11T22:14:46.010Z,16.30
2017-12-11T22:17:14.753Z,16.20
2017-12-11T22:19:43.601Z,16.00
2017-12-11T22:22:11.743Z,15.90
2017-12-11T22:24:41.205Z,15.70
2017-12-11T22:27:09.510Z,15.70
2017-12-11T22:29:37.532Z,15.70
2017-12-11T22:32:05.804Z,15.70
2017-12-11T22:34:33.864Z,15.80
2017-12-11T22:37:02.725Z,15.90
2017-12-11T22:39:31.493Z,16.00
2017-12-11T22:41:59.486Z,16.00
2017-12-11T22:44:28.290Z,16.10
2017-12-11T22:46:57.093Z,16.20
2017-12-11T22:49:25.164Z,16.20
2017-12-11T22:51:56.021Z,16.20
2017-12-11T22:54:24.850Z,16.30
2017-12-11T22:56:54.917Z,16.30
2017-12-11T22:59:22.933Z,16.40
2017-12-11T23:01:50.973Z,16.40
2017-12-11T23:04:19.265Z,16.50
2017-12-11T23:06:47.278Z,16.50
2017-12-11T23:09:16.377Z,16.50
2017-12-11T23:11:45.463Z,16.60
2017-12-11T23:14:14.224Z,16.60
2017-12-11T23:16:42.731Z,16.60
2017-12-11T23:19:12.533Z,16.60
2017-12-11T23:21:40.906Z,16.60
2017-12-11T23:24:09.967Z,16.60
2017-12-11T23:26:38.378Z,16.60
2017-12-11T23:29:06.406Z,16.60
2017-12-11T23:31:34.414Z,16.60
2017-12-11T23:34:02.666Z,16.60
2017-12-11T23:36:30.657Z,16.60
2017-12-11T23:38:58.688Z,16.60
2017-12-11T23:41:26.698Z,16.60
2017-12-11T23:43:54.674Z,16.60
2017-12-11T23:46:22.684Z,16.60
2017-12-11T23:48:50.755Z,16.70
2017-12-11T23:51:18.813Z,16.70
2017-12-11T23:53:47.602Z,16.70
2017-12-11T23:56:16.354Z,16.70
2017-12-11T23:58:44.342Z,16.70
